Aviation Digital Data Service (ADDS)

Output produced by METARs form (0556 UTC 19 March 2019)
found at http://www.aviationweather.gov/metar/data/
 
Forecast for: PHKO (KAILUA/KONA , HI, US)
Text: PHKO 190541Z 1906/2006 04007KT P6SM SKC
Forecast period: 0600 to 2000 UTC 19 March 2019
Forecast type: FROM: standard forecast or significant change
Winds: from the NE (40 degrees) at 8 MPH (7 knots; 3.6 m/s)
Visibility: 6 or more miles 10+ km)
Clouds: clear skies
Weather: no significant weather forecast for this period
Text: FM192000 09008KT P6SM SCT050
Forecast period: 2000 UTC 19 March 2019 to 0500 UTC 20 March 2019
Forecast type: FROM: standard forecast or significant change
Winds: from the E (90 degrees) at 9 MPH (8 knots; 4.1 m/s)
Visibility: 6 or more miles 10+ km)
Ceiling: at least 12,000 feet AGL
Clouds: scattered clouds at 5000 feet AGL
Weather: no significant weather forecast for this period
Text: FM200500 VRB05KT P6SM FEW050
Forecast period: 0500 to 0600 UTC 20 March 2019
Forecast type: FROM: standard forecast or significant change
Winds: variable direction winds at 6 MPH (5 knots; 2.6 m/s)
Visibility: 6 or more miles 10+ km)
Ceiling: at least 12,000 feet AGL
Clouds: few clouds at 5000 feet AGL
Weather: no significant weather forecast for this period